sensor_id;sensor_type;location;lat;lon;timestamp;pressure;altitude;pressure_sealevel;temperature;humidity
69848;BME280;57143;55.940;37.496;2023-04-01T00:01:26;95218.25;;;1.80;100.00
69848;BME280;57143;55.940;37.496;2023-04-01T00:03:53;95216.09;;;1.82;100.00
69848;BME280;57143;55.940;37.496;2023-04-01T00:06:22;95221.47;;;1.77;100.00
69848;BME280;57143;55.940;37.496;2023-04-01T00:08:50;95228.13;;;1.75;100.00
69848;BME280;57143;55.940;37.496;2023-04-01T00:11:19;95231.88;;;1.74;100.00
69848;BME280;57143;55.940;37.496;2023-04-01T00:13:47;95221.47;;;1.72;100.00
69848;BME280;57143;55.940;37.496;2023-04-01T00:16:14;95224.66;;;1.69;100.00
69848;BME280;57143;55.940;37.496;2023-04-01T00:18:41;95222.25;;;1.73;100.00
69848;BME280;57143;55.940;37.496;2023-04-01T00:21:08;95214.00;;;1.74;100.00
69848;BME280;57143;55.940;37.496;2023-04-01T00:23:36;95202.25;;;1.70;100.00
69848;BME280;57143;55.940;37.496;2023-04-01T00:26:04;95208.91;;;1.73;100.00
69848;BME280;57143;55.940;37.496;2023-04-01T00:28:33;95203.84;;;1.71;100.00
69848;BME280;57143;55.940;37.496;2023-04-01T00:31:04;95197.47;;;1.72;100.00
69848;BME280;57143;55.940;37.496;2023-04-01T00:33:32;95195.31;;;1.74;100.00
69848;BME280;57143;55.940;37.496;2023-04-01T00:36:06;95191.03;;;1.73;100.00
69848;BME280;57143;55.940;37.496;2023-04-01T00:38:34;95178.25;;;1.70;100.00
69848;BME280;57143;55.940;37.496;2023-04-01T00:41:01;95180.63;;;1.72;100.00
69848;BME280;57143;55.940;37.496;2023-04-01T00:43:30;95176.63;;;1.69;100.00
69848;BME280;57143;55.940;37.496;2023-04-01T00:45:57;95175.88;;;1.64;100.00
69848;BME280;57143;55.940;37.496;2023-04-01T00:48:28;95159.84;;;1.69;100.00
69848;BME280;57143;55.940;37.496;2023-04-01T00:51:00;95168.09;;;1.72;100.00
69848;BME280;57143;55.940;37.496;2023-04-01T00:53:30;95172.03;;;1.85;100.00
69848;BME280;57143;55.940;37.496;2023-04-01T00:56:01;95164.06;;;1.75;100.00
69848;BME280;57143;55.940;37.496;2023-04-01T00:58:35;95174.47;;;1.76;100.00
69848;BME280;57143;55.940;37.496;2023-04-01T01:01:06;95169.63;;;1.88;100.00
69848;BME280;57143;55.940;37.496;2023-04-01T01:03:35;95133.19;;;1.64;100.00
69848;BME280;57143;55.940;37.496;2023-04-01T01:06:11;95164.59;;;1.82;100.00
69848;BME280;57143;55.940;37.496;2023-04-01T01:09:06;95184.63;;;1.79;100.00
69848;BME280;57143;55.940;37.496;2023-04-01T01:11:40;95176.09;;;1.77;100.00
69848;BME280;57143;55.940;37.496;2023-04-01T01:14:19;95187.56;;;1.83;100.00
69848;BME280;57143;55.940;37.496;2023-04-01T01:16:54;95198.50;;;1.76;100.00
69848;BME280;57143;55.940;37.496;2023-04-01T01:19:58;95190.47;;;1.81;100.00
69848;BME280;57143;55.940;37.496;2023-04-01T01:22:57;95190.78;;;1.70;100.00
69848;BME280;57143;55.940;37.496;2023-04-01T01:25:39;95203.56;;;1.83;100.00
69848;BME280;57143;55.940;37.496;2023-04-01T01:28:25;95201.97;;;1.77;100.00
69848;BME280;57143;55.940;37.496;2023-04-01T01:31:00;95215.28;;;1.82;100.00
69848;BME280;57143;55.940;37.496;2023-04-01T01:33:47;95209.16;;;1.81;100.00
69848;BME280;57143;55.940;37.496;2023-04-01T01:36:20;95216.38;;;1.81;100.00
69848;BME280;57143;55.940;37.496;2023-04-01T01:38:48;95218.25;;;1.80;100.00
69848;BME280;57143;55.940;37.496;2023-04-01T01:41:18;95227.34;;;1.79;100.00
69848;BME280;57143;55.940;37.496;2023-04-01T01:43:48;95230.00;;;1.79;100.00
69848;BME280;57143;55.940;37.496;2023-04-01T01:46:20;95207.88;;;1.69;100.00
69848;BME280;57143;55.940;37.496;2023-04-01T01:48:49;95201.47;;;1.70;100.00
69848;BME280;57143;55.940;37.496;2023-04-01T01:51:20;95218.25;;;1.80;100.00
69848;BME280;57143;55.940;37.496;2023-04-01T01:53:48;95226.50;;;1.84;100.00
69848;BME280;57143;55.940;37.496;2023-04-01T01:56:17;95223.56;;;1.85;100.00
69848;BME280;57143;55.940;37.496;2023-04-01T01:58:49;95212.91;;;1.80;100.00
69848;BME280;57143;55.940;37.496;2023-04-01T02:01:19;95217.41;;;1.85;100.00
69848;BME280;57143;55.940;37.496;2023-04-01T02:03:48;95220.63;;;1.87;100.00
69848;BME280;57143;55.940;37.496;2023-04-01T02:06:21;95215.56;;;1.85;100.00
69848;BME280;57143;55.940;37.496;2023-04-01T02:08:50;95205.69;;;1.81;100.00
69848;BME280;57143;55.940;37.496;2023-04-01T02:11:21;95211.81;;;1.91;100.00
69848;BME280;57143;55.940;37.496;2023-04-01T02:13:53;95214.72;;;1.90;100.00
69848;BME280;57143;55.940;37.496;2023-04-01T02:16:45;95198.22;;;1.78;100.00
69848;BME280;57143;55.940;37.496;2023-04-01T02:19:15;95222.22;;;1.88;100.00
69848;BME280;57143;55.940;37.496;2023-04-01T02:21:50;95230.75;;;1.85;100.00
69848;BME280;57143;55.940;37.496;2023-04-01T02:24:20;95223.03;;;1.78;100.00
69848;BME280;57143;55.940;37.496;2023-04-01T02:26:50;95231.28;;;1.92;100.00
69848;BME280;57143;55.940;37.496;2023-04-01T02:29:20;95214.47;;;1.96;100.00
69848;BME280;57143;55.940;37.496;2023-04-01T02:31:49;95209.66;;;1.98;100.00
69848;BME280;57143;55.940;37.496;2023-04-01T02:34:17;95231.50;;;2.10;100.00
69848;BME280;57143;55.940;37.496;2023-04-01T02:36:44;95251.78;;;2.06;100.00
69848;BME280;57143;55.940;37.496;2023-04-01T02:39:13;95268.91;;;1.95;100.00
69848;BME280;57143;55.940;37.496;2023-04-01T02:41:41;95273.75;;;1.83;100.00
69848;BME280;57143;55.940;37.496;2023-04-01T02:44:08;95267.06;;;1.86;100.00
69848;BME280;57143;55.940;37.496;2023-04-01T02:46:36;95286.56;;;1.91;100.00
69848;BME280;57143;55.940;37.496;2023-04-01T02:49:04;95282.56;;;1.84;100.00
69848;BME280;57143;55.940;37.496;2023-04-01T02:51:31;95280.91;;;1.98;100.00
69848;BME280;57143;55.940;37.496;2023-04-01T02:53:58;95286.53;;;1.96;100.00
69848;BME280;57143;55.940;37.496;2023-04-01T02:56:27;95288.13;;;1.97;100.00
69848;BME280;57143;55.940;37.496;2023-04-01T02:58:54;95295.31;;;1.97;100.00
69848;BME280;57143;55.940;37.496;2023-04-01T03:01:21;95297.47;;;2.05;100.00
69848;BME280;57143;55.940;37.496;2023-04-01T03:03:49;95268.63;;;1.97;100.00
69848;BME280;57143;55.940;37.496;2023-04-01T03:06:16;95286.47;;;2.11;100.00
69848;BME280;57143;55.940;37.496;2023-04-01T03:08:44;95297.19;;;2.06;100.00
69848;BME280;57143;55.940;37.496;2023-04-01T03:11:11;95309.47;;;2.02;100.00
69848;BME280;57143;55.940;37.496;2023-04-01T03:13:40;95314.00;;;1.97;100.00
69848;BME280;57143;55.940;37.496;2023-04-01T03:16:07;95322.31;;;1.90;100.00
69848;BME280;57143;55.940;37.496;2023-04-01T03:18:34;95324.69;;;1.92;100.00
69848;BME280;57143;55.940;37.496;2023-04-01T03:21:13;95329.50;;;1.90;100.00
69848;BME280;57143;55.940;37.496;2023-04-01T03:23:41;95336.44;;;1.96;100.00
69848;BME280;57143;55.940;37.496;2023-04-01T03:26:08;95339.94;;;1.96;100.00
69848;BME280;57143;55.940;37.496;2023-04-01T03:28:35;95340.72;;;1.97;100.00
69848;BME280;57143;55.940;37.496;2023-04-01T03:31:04;95327.09;;;1.88;100.00
69848;BME280;57143;55.940;37.496;2023-04-01T03:33:31;95332.69;;;1.97;100.00
69848;BME280;57143;55.940;37.496;2023-04-01T03:35:59;95328.72;;;1.94;100.00
69848;BME280;57143;55.940;37.496;2023-04-01T03:38:26;95342.34;;;1.93;100.00
69848;BME280;57143;55.940;37.496;2023-04-01T03:40:53;95347.41;;;1.99;100.00
69848;BME280;57143;55.940;37.496;2023-04-01T03:43:21;95356.22;;;2.00;100.00
69848;BME280;57143;55.940;37.496;2023-04-01T03:45:49;95358.59;;;2.01;100.00
69848;BME280;57143;55.940;37.496;2023-04-01T03:48:18;95355.13;;;1.96;100.00
69848;BME280;57143;55.940;37.496;2023-04-01T03:50:46;95362.06;;;1.97;100.00
69848;BME280;57143;55.940;37.496;2023-04-01T03:53:14;95358.06;;;1.99;100.00
69848;BME280;57143;55.940;37.496;2023-04-01T03:55:41;95355.13;;;2.01;100.00
69848;BME280;57143;55.940;37.496;2023-04-01T03:58:09;95355.13;;;2.01;100.00
69848;BME280;57143;55.940;37.496;2023-04-01T04:00:36;95375.44;;;2.02;100.00
69848;BME280;57143;55.940;37.496;2023-04-01T04:03:03;95365.78;;;2.06;100.00
69848;BME280;57143;55.940;37.496;2023-04-01T04:05:32;95339.41;;;1.89;100.00
69848;BME280;57143;55.940;37.496;2023-04-01T04:07:59;95356.72;;;2.07;100.00
69848;BME280;57143;55.940;37.496;2023-04-01T04:10:26;95360.44;;;2.16;100.00
69848;BME280;57143;55.940;37.496;2023-04-01T04:12:55;95353.25;;;2.06;100.00
69848;BME280;57143;55.940;37.496;2023-04-01T04:15:22;95366.03;;;2.14;100.00
69848;BME280;57143;55.940;37.496;2023-04-01T04:17:49;95365.53;;;2.07;100.00
69848;BME280;57143;55.940;37.496;2023-04-01T04:20:16;95381.53;;;2.12;100.00
69848;BME280;57143;55.940;37.496;2023-04-01T04:22:45;95375.69;;;2.15;100.00
69848;BME280;57143;55.940;37.496;2023-04-01T04:25:12;95381.78;;;2.21;100.00
69848;BME280;57143;55.940;37.496;2023-04-01T04:27:39;95378.06;;;2.22;100.00
69848;BME280;57143;55.940;37.496;2023-04-01T04:30:08;95376.47;;;2.26;100.00
69848;BME280;57143;55.940;37.496;2023-04-01T04:32:35;95383.69;;;2.20;100.00
69848;BME280;57143;55.940;37.496;2023-04-01T04:35:03;95381.25;;;2.29;100.00
69848;BME280;57143;55.940;37.496;2023-04-01T04:37:31;95379.91;;;2.26;100.00
69848;BME280;57143;55.940;37.496;2023-04-01T04:40:00;95387.91;;;2.31;100.00
69848;BME280;57143;55.940;37.496;2023-04-01T04:42:28;95375.09;;;2.28;100.00
69848;BME280;57143;55.940;37.496;2023-04-01T04:44:55;95398.06;;;2.40;100.00
69848;BME280;57143;55.940;37.496;2023-04-01T04:47:23;95402.31;;;2.41;100.00
69848;BME280;57143;55.940;37.496;2023-04-01T04:49:50;95405.00;;;2.41;100.00
69848;BME280;57143;55.940;37.496;2023-04-01T04:52:17;95412.44;;;2.44;100.00
69848;BME280;57143;55.940;37.496;2023-04-01T04:54:44;95411.41;;;2.45;100.00
69848;BME280;57143;55.940;37.496;2023-04-01T04:57:12;95409.75;;;2.49;100.00
69848;BME280;57143;55.940;37.496;2023-04-01T04:59:40;95428.50;;;2.54;100.00
69848;BME280;57143;55.940;37.496;2023-04-01T05:02:07;95427.94;;;2.52;100.00
69848;BME280;57143;55.940;37.496;2023-04-01T05:04:35;95441.59;;;2.50;100.00
69848;BME280;57143;55.940;37.496;2023-04-01T05:07:02;95446.09;;;2.55;100.00
69848;BME280;57143;55.940;37.496;2023-04-01T05:09:29;95443.97;;;2.62;100.00
69848;BME280;57143;55.940;37.496;2023-04-01T05:11:57;95448.19;;;2.68;100.00
69848;BME280;57143;55.940;37.496;2023-04-01T05:14:26;95446.56;;;2.82;100.00
69848;BME280;57143;55.940;37.496;2023-04-01T05:16:53;95439.59;;;2.91;100.00
69848;BME280;57143;55.940;37.496;2023-04-01T05:19:21;95448.94;;;2.88;100.00
69848;BME280;57143;55.940;37.496;2023-04-01T05:21:48;95447.31;;;2.92;100.00
69848;BME280;57143;55.940;37.496;2023-04-01T05:24:15;95468.97;;;2.96;100.00
69848;BME280;57143;55.940;37.496;2023-04-01T05:26:43;95472.16;;;3.03;100.00
69848;BME280;57143;55.940;37.496;2023-04-01T05:29:10;95465.72;;;3.09;100.00
69848;BME280;57143;55.940;37.496;2023-04-01T05:31:38;95478.56;;;3.12;100.00
69848;BME280;57143;55.940;37.496;2023-04-01T05:34:05;95498.91;;;3.03;100.00
69848;BME280;57143;55.940;37.496;2023-04-01T05:36:32;95493.50;;;3.18;100.00
69848;BME280;57143;55.940;37.496;2023-04-01T05:39:01;95498.28;;;3.26;100.00
69848;BME280;57143;55.940;37.496;2023-04-01T05:41:29;95520.25;;;3.18;100.00
69848;BME280;57143;55.940;37.496;2023-04-01T05:43:56;95531.25;;;3.06;100.00
69848;BME280;57143;55.940;37.496;2023-04-01T05:46:23;95543.31;;;3.09;100.00
69848;BME280;57143;55.940;37.496;2023-04-01T05:48:52;95544.31;;;3.23;100.00
69848;BME280;57143;55.940;37.496;2023-04-01T05:51:19;95553.13;;;3.23;100.00
69848;BME280;57143;55.940;37.496;2023-04-01T05:53:46;95560.06;;;3.34;100.00
69848;BME280;57143;55.940;37.496;2023-04-01T05:56:14;95576.13;;;3.34;100.00
69848;BME280;57143;55.940;37.496;2023-04-01T05:58:41;95590.56;;;3.28;100.00
69848;BME280;57143;55.940;37.496;2023-04-01T06:01:10;95595.38;;;3.41;100.00
69848;BME280;57143;55.940;37.496;2023-04-01T06:03:37;95603.13;;;3.38;100.00
69848;BME280;57143;55.940;37.496;2023-04-01T06:06:13;95614.31;;;3.55;100.00
69848;BME280;57143;55.940;37.496;2023-04-01T06:08:41;95623.41;;;3.64;100.00
69848;BME280;57143;55.940;37.496;2023-04-01T06:11:20;95640.00;;;3.61;100.00
69848;BME280;57143;55.940;37.496;2023-04-01T06:14:01;95631.44;;;3.54;100.00
69848;BME280;57143;55.940;37.496;2023-04-01T06:16:43;95631.66;;;3.68;100.00
69848;BME280;57143;55.940;37.496;2023-04-01T06:19:24;95645.28;;;3.86;100.00
69848;BME280;57143;55.940;37.496;2023-04-01T06:22:24;95648.19;;;3.90;100.00
69848;BME280;57143;55.940;37.496;2023-04-01T06:28:07;95658.22;;;4.18;100.00
69848;BME280;57143;55.940;37.496;2023-04-01T06:30:47;95683.63;;;4.30;100.00
69848;BME280;57143;55.940;37.496;2023-04-01T06:33:31;95683.84;;;4.39;100.00
69848;BME280;57143;55.940;37.496;2023-04-01T06:36:26;95707.41;;;4.42;100.00
69848;BME280;57143;55.940;37.496;2023-04-01T06:39:10;95679.09;;;4.31;100.00
69848;BME280;57143;55.940;37.496;2023-04-01T06:42:01;95741.38;;;4.61;100.00
69848;BME280;57143;55.940;37.496;2023-04-01T06:44:38;95763.38;;;4.63;100.00
69848;BME280;57143;55.940;37.496;2023-04-01T06:47:20;95782.97;;;4.54;100.00
69848;BME280;57143;55.940;37.496;2023-04-01T06:49:55;95801.94;;;4.72;100.00
69848;BME280;57143;55.940;37.496;2023-04-01T06:52:26;95822.56;;;4.77;100.00
69848;BME280;57143;55.940;37.496;2023-04-01T06:55:02;95852.59;;;4.79;100.00
69848;BME280;57143;55.940;37.496;2023-04-01T06:57:41;95856.00;;;4.95;100.00
69848;BME280;57143;55.940;37.496;2023-04-01T07:00:13;95881.22;;;4.94;100.00
69848;BME280;57143;55.940;37.496;2023-04-01T07:02:47;95895.13;;;5.11;100.00
69848;BME280;57143;55.940;37.496;2023-04-01T07:05:19;95902.03;;;5.22;100.00
69848;BME280;57143;55.940;37.496;2023-04-01T07:07:48;95924.78;;;5.34;100.00
69848;BME280;57143;55.940;37.496;2023-04-01T07:10:23;95961.03;;;5.32;100.00
69848;BME280;57143;55.940;37.496;2023-04-01T07:12:54;95981.97;;;5.30;100.00
69848;BME280;57143;55.940;37.496;2023-04-01T07:15:27;96001.38;;;5.17;100.00
69848;BME280;57143;55.940;37.496;2023-04-01T07:17:58;96024.44;;;5.13;100.00
69848;BME280;57143;55.940;37.496;2023-04-01T07:20:31;96054.53;;;5.05;100.00
69848;BME280;57143;55.940;37.496;2023-04-01T07:23:00;96071.16;;;5.17;100.00
69848;BME280;57143;55.940;37.496;2023-04-01T07:25:33;96097.72;;;5.13;100.00
69848;BME280;57143;55.940;37.496;2023-04-01T07:28:05;96095.03;;;5.23;100.00
69848;BME280;57143;55.940;37.496;2023-04-01T07:30:42;96082.97;;;5.16;100.00
69848;BME280;57143;55.940;37.496;2023-04-01T07:33:16;96132.84;;;5.47;100.00
69848;BME280;57143;55.940;37.496;2023-04-01T07:35:52;96136.56;;;5.71;100.00
69848;BME280;57143;55.940;37.496;2023-04-01T07:38:30;96151.00;;;5.80;100.00
69848;BME280;57143;55.940;37.496;2023-04-01T07:41:09;96158.00;;;5.91;100.00
69848;BME280;57143;55.940;37.496;2023-04-01T07:43:53;96180.56;;;5.95;100.00
69848;BME280;57143;55.940;37.496;2023-04-01T07:46:33;96205.09;;;5.48;100.00
69848;BME280;57143;55.940;37.496;2023-04-01T07:49:07;96223.03;;;5.78;100.00
69848;BME280;57143;55.940;37.496;2023-04-01T07:51:40;96244.25;;;5.79;100.00
69848;BME280;57143;55.940;37.496;2023-04-01T07:54:15;96236.22;;;5.74;100.00
69848;BME280;57143;55.940;37.496;2023-04-01T07:56:50;96270.03;;;5.80;100.00
69848;BME280;57143;55.940;37.496;2023-04-01T07:59:25;96285.41;;;5.90;100.00
69848;BME280;57143;55.940;37.496;2023-04-01T08:02:02;96302.03;;;6.02;100.00
69848;BME280;57143;55.940;37.496;2023-04-01T08:04:52;96286.69;;;6.18;100.00
69848;BME280;57143;55.940;37.496;2023-04-01T08:07:24;96314.06;;;6.25;100.00
69848;BME280;57143;55.940;37.496;2023-04-01T08:09:57;96316.78;;;6.30;100.00
69848;BME280;57143;55.940;37.496;2023-04-01T08:12:35;96334.94;;;6.63;100.00
69848;BME280;57143;55.940;37.496;2023-04-01T08:15:11;96356.44;;;6.68;100.00
69848;BME280;57143;55.940;37.496;2023-04-01T08:17:48;96368.72;;;6.99;100.00
69848;BME280;57143;55.940;37.496;2023-04-01T08:20:30;96401.00;;;7.04;100.00
69848;BME280;57143;55.940;37.496;2023-04-01T08:23:05;96415.19;;;7.30;100.00
69848;BME280;57143;55.940;37.496;2023-04-01T08:25:34;96424.00;;;7.45;100.00
69848;BME280;57143;55.940;37.496;2023-04-01T08:28:11;96475.78;;;7.27;100.00
69848;BME280;57143;55.940;37.496;2023-04-01T08:30:43;96496.00;;;7.30;100.00
69848;BME280;57143;55.940;37.496;2023-04-01T08:33:17;96521.06;;;7.15;100.00
69848;BME280;57143;55.940;37.496;2023-04-01T08:35:49;96547.75;;;7.07;100.00
69848;BME280;57143;55.940;37.496;2023-04-01T08:38:24;96527.59;;;6.89;100.00
69848;BME280;57143;55.940;37.496;2023-04-01T08:41:01;96576.81;;;7.30;100.00
69848;BME280;57143;55.940;37.496;2023-04-01T08:43:51;96582.72;;;7.27;100.00
69848;BME280;57143;55.940;37.496;2023-04-01T08:49:22;96617.34;;;7.88;100.00
69848;BME280;57143;55.940;37.496;2023-04-01T08:52:20;96646.34;;;8.11;100.00
69848;BME280;57143;55.940;37.496;2023-04-01T08:55:15;96740.16;;;8.40;100.00
69848;BME280;57143;55.940;37.496;2023-04-01T08:57:57;96810.63;;;8.08;100.00
69848;BME280;57143;55.940;37.496;2023-04-01T09:00:32;96835.19;;;8.01;100.00
69848;BME280;57143;55.940;37.496;2023-04-01T09:03:19;96862.72;;;7.83;100.00
69848;BME280;57143;55.940;37.496;2023-04-01T09:06:19;96901.78;;;7.86;100.00
69848;BME280;57143;55.940;37.496;2023-04-01T09:09:04;96920.94;;;7.89;100.00
69848;BME280;57143;55.940;37.496;2023-04-01T09:11:46;96924.19;;;8.01;100.00
69848;BME280;57143;55.940;37.496;2023-04-01T09:14:43;96955.16;;;7.79;100.00
69848;BME280;57143;55.940;37.496;2023-04-01T09:20:38;96925.75;;;7.67;100.00
69848;BME280;57143;55.940;37.496;2023-04-01T09:23:21;96977.00;;;7.77;100.00
69848;BME280;57143;55.940;37.496;2023-04-01T09:26:12;96992.94;;;7.89;100.00
69848;BME280;57143;55.940;37.496;2023-04-01T09:28:49;96997.75;;;7.72;100.00
69848;BME280;57143;55.940;37.496;2023-04-01T09:31:32;97042.00;;;7.86;100.00
69848;BME280;57143;55.940;37.496;2023-04-01T09:37:21;97043.56;;;7.67;100.00
69848;BME280;57143;55.940;37.496;2023-04-01T09:42:56;97079.00;;;7.95;100.00
69848;BME280;57143;55.940;37.496;2023-04-01T09:45:37;97074.41;;;8.01;100.00
69848;BME280;57143;55.940;37.496;2023-04-01T09:48:21;97095.47;;;8.04;100.00
69848;BME280;57143;55.940;37.496;2023-04-01T09:51:00;97095.50;;;8.09;100.00
69848;BME280;57143;55.940;37.496;2023-04-01T09:53:52;97096.13;;;8.31;100.00
69848;BME280;57143;55.940;37.496;2023-04-01T10:03:15;97135.31;;;7.87;100.00
69848;BME280;57143;55.940;37.496;2023-04-01T10:09:39;97094.25;;;8.37;100.00
69848;BME280;57143;55.940;37.496;2023-04-01T10:21:21;97137.47;;;8.47;100.00
69848;BME280;57143;55.940;37.496;2023-04-01T10:24:07;97162.53;;;8.42;100.00
69848;BME280;57143;55.940;37.496;2023-04-01T10:36:23;97212.81;;;8.63;100.00
69848;BME280;57143;55.940;37.496;2023-04-01T10:39:27;97223.81;;;8.42;100.00
69848;BME280;57143;55.940;37.496;2023-04-01T10:45:48;97248.66;;;8.44;100.00
69848;BME280;57143;55.940;37.496;2023-04-01T10:48:34;97239.84;;;8.73;100.00
69848;BME280;57143;55.940;37.496;2023-04-01T10:51:17;97242.59;;;8.88;100.00
69848;BME280;57143;55.940;37.496;2023-04-01T10:56:45;97224.53;;;9.09;100.00
69848;BME280;57143;55.940;37.496;2023-04-01T10:59:32;97283.63;;;8.85;100.00
69848;BME280;57143;55.940;37.496;2023-04-01T11:02:38;97301.47;;;8.81;100.00
69848;BME280;57143;55.940;37.496;2023-04-01T11:05:54;97294.94;;;8.72;100.00
69848;BME280;57143;55.940;37.496;2023-04-01T11:08:53;97287.19;;;8.96;100.00
69848;BME280;57143;55.940;37.496;2023-04-01T11:15:06;97295.00;;;8.97;100.00
69848;BME280;57143;55.940;37.496;2023-04-01T11:23:54;97334.78;;;9.17;100.00
69848;BME280;57143;55.940;37.496;2023-04-01T11:26:32;97327.78;;;9.11;100.00
69848;BME280;57143;55.940;37.496;2023-04-01T11:31:58;97345.56;;;9.02;100.00
69848;BME280;57143;55.940;37.496;2023-04-01T11:34:50;97357.69;;;8.99;100.00
69848;BME280;57143;55.940;37.496;2023-04-01T11:37:36;97379.28;;;8.89;100.00
69848;BME280;57143;55.940;37.496;2023-04-01T11:40:14;97388.19;;;8.90;100.00
69848;BME280;57143;55.940;37.496;2023-04-01T11:42:55;97395.34;;;8.64;100.00
69848;BME280;57143;55.940;37.496;2023-04-01T11:45:32;97377.16;;;8.50;100.00
69848;BME280;57143;55.940;37.496;2023-04-01T11:48:22;97384.56;;;8.64;100.00
69848;BME280;57143;55.940;37.496;2023-04-01T11:51:18;97390.47;;;8.66;100.00
69848;BME280;57143;55.940;37.496;2023-04-01T11:53:55;97385.97;;;8.82;100.00
69848;BME280;57143;55.940;37.496;2023-04-01T11:56:38;97380.13;;;8.95;100.00
69848;BME280;57143;55.940;37.496;2023-04-01T11:59:47;97392.06;;;9.09;100.00
69848;BME280;57143;55.940;37.496;2023-04-01T12:02:25;97397.47;;;9.09;100.00
69848;BME280;57143;55.940;37.496;2023-04-01T12:05:18;97427.38;;;8.97;100.00
69848;BME280;57143;55.940;37.496;2023-04-01T12:08:02;97425.25;;;8.99;100.00
69848;BME280;57143;55.940;37.496;2023-04-01T12:10:39;97429.59;;;9.00;100.00
69848;BME280;57143;55.940;37.496;2023-04-01T12:13:14;97396.53;;;8.83;100.00
69848;BME280;57143;55.940;37.496;2023-04-01T12:15:57;97417.97;;;9.00;100.00
69848;BME280;57143;55.940;37.496;2023-04-01T12:18:36;97443.69;;;9.12;100.00
69848;BME280;57143;55.940;37.496;2023-04-01T12:21:15;97440.41;;;9.05;100.00
69848;BME280;57143;55.940;37.496;2023-04-01T12:24:07;97431.44;;;8.95;100.00
69848;BME280;57143;55.940;37.496;2023-04-01T12:26:52;97465.22;;;8.97;100.00
69848;BME280;57143;55.940;37.496;2023-04-01T12:29:38;97477.38;;;8.95;100.00
69848;BME280;57143;55.940;37.496;2023-04-01T12:32:15;97489.91;;;9.11;100.00
69848;BME280;57143;55.940;37.496;2023-04-01T12:35:05;97502.63;;;9.15;100.00
69848;BME280;57143;55.940;37.496;2023-04-01T12:37:46;97500.44;;;9.12;100.00
69848;BME280;57143;55.940;37.496;2023-04-01T12:40:33;97512.03;;;9.13;100.00
69848;BME280;57143;55.940;37.496;2023-04-01T12:43:48;97508.84;;;9.16;100.00
69848;BME280;57143;55.940;37.496;2023-04-01T12:46:26;97513.44;;;9.15;100.00
69848;BME280;57143;55.940;37.496;2023-04-01T12:49:18;97525.25;;;9.09;100.00
69848;BME280;57143;55.940;37.496;2023-04-01T12:51:56;97548.53;;;9.10;100.00
69848;BME280;57143;55.940;37.496;2023-04-01T12:55:07;97538.16;;;8.97;100.00
69848;BME280;57143;55.940;37.496;2023-04-01T13:01:00;97559.53;;;8.99;100.00
69848;BME280;57143;55.940;37.496;2023-04-01T13:03:47;97560.06;;;9.01;100.00
69848;BME280;57143;55.940;37.496;2023-04-01T13:06:29;97570.38;;;9.04;100.00
69848;BME280;57143;55.940;37.496;2023-04-01T13:09:08;97578.19;;;9.00;100.00
69848;BME280;57143;55.940;37.496;2023-04-01T13:11:51;97594.59;;;8.94;100.00
69848;BME280;57143;55.940;37.496;2023-04-01T13:14:42;97584.53;;;8.84;100.00
69848;BME280;57143;55.940;37.496;2023-04-01T13:17:16;97589.44;;;8.92;100.00
69848;BME280;57143;55.940;37.496;2023-04-01T13:19:50;97582.66;;;8.85;100.00
69848;BME280;57143;55.940;37.496;2023-04-01T13:22:23;97581.66;;;8.96;100.00
69848;BME280;57143;55.940;37.496;2023-04-01T13:24:58;97588.69;;;8.97;100.00
69848;BME280;57143;55.940;37.496;2023-04-01T13:27:33;97576.78;;;8.93;100.00
69848;BME280;57143;55.940;37.496;2023-04-01T13:30:13;97563.19;;;8.83;100.00
69848;BME280;57143;55.940;37.496;2023-04-01T13:32:49;97575.59;;;8.84;100.00
69848;BME280;57143;55.940;37.496;2023-04-01T13:35:26;97568.56;;;8.78;100.00
69848;BME280;57143;55.940;37.496;2023-04-01T13:38:13;97569.06;;;8.75;100.00
69848;BME280;57143;55.940;37.496;2023-04-01T13:40:51;97572.53;;;8.70;100.00
69848;BME280;57143;55.940;37.496;2023-04-01T13:43:23;97584.13;;;8.66;100.00
69848;BME280;57143;55.940;37.496;2023-04-01T13:46:11;97594.56;;;8.57;100.00
69848;BME280;57143;55.940;37.496;2023-04-01T13:49:02;97591.53;;;8.49;100.00
69848;BME280;57143;55.940;37.496;2023-04-01T13:51:56;97599.34;;;8.50;100.00
69848;BME280;57143;55.940;37.496;2023-04-01T13:54:58;97613.16;;;8.54;100.00
69848;BME280;57143;55.940;37.496;2023-04-01T13:57:43;97617.69;;;8.48;100.00
69848;BME280;57143;55.940;37.496;2023-04-01T14:00:25;97622.78;;;8.45;100.00
69848;BME280;57143;55.940;37.496;2023-04-01T14:03:09;97619.25;;;8.44;100.00
69848;BME280;57143;55.940;37.496;2023-04-01T14:05:53;97627.34;;;8.44;100.00
69848;BME280;57143;55.940;37.496;2023-04-01T14:08:40;97605.63;;;8.29;100.00
69848;BME280;57143;55.940;37.496;2023-04-01T14:11:16;97638.19;;;8.49;100.00
69848;BME280;57143;55.940;37.496;2023-04-01T14:13:55;97636.06;;;8.51;100.00
69848;BME280;57143;55.940;37.496;2023-04-01T14:16:57;97636.13;;;8.56;100.00
69848;BME280;57143;55.940;37.496;2023-04-01T14:19:44;97644.13;;;8.46;100.00
69848;BME280;57143;55.940;37.496;2023-04-01T14:22:25;97640.38;;;8.47;100.00
69848;BME280;57143;55.940;37.496;2023-04-01T14:25:18;97648.16;;;8.44;100.00
69848;BME280;57143;55.940;37.496;2023-04-01T14:27:55;97659.00;;;8.49;100.00
69848;BME280;57143;55.940;37.496;2023-04-01T14:30:45;97659.28;;;8.47;100.00
69848;BME280;57143;55.940;37.496;2023-04-01T14:33:31;97658.66;;;8.40;100.00
69848;BME280;57143;55.940;37.496;2023-04-01T14:36:29;97645.84;;;8.31;100.00
69848;BME280;57143;55.940;37.496;2023-04-01T14:39:12;97664.47;;;8.32;100.00
69848;BME280;57143;55.940;37.496;2023-04-01T14:41:47;97658.09;;;8.21;100.00
69848;BME280;57143;55.940;37.496;2023-04-01T14:44:27;97648.59;;;8.14;100.00